Time;durP1;ratioP1;P1;durP2;ratioP2;P2;SDS_P1;SDS_P2;PMS_P1;PMS_P2;Temp;Humidity;BMP_temperature;BMP_pressure;BME280_temperature;BME280_humidity;BME280_pressure;Samples;Min_cycle;Max_cycle;Signal;HPM_P1;HPM_P2
2022/04/17 00:01:58;;;;;;;;;2.33;2.33;;;;;16.56;34.55;102100.72;5176142;27;45038;-65
2022/04/17 00:04:23;;;;;;;;;3.25;3.25;;;;;16.62;34.00;102108.97;5170748;27;45039;-64
2022/04/17 00:06:48;;;;;;;;;2.67;2.67;;;;;16.59;34.05;102104.41;5176073;27;45503;-65
2022/04/17 00:09:14;;;;;;;;;3.33;2.33;;;;;16.61;34.48;102100.84;5175641;27;46079;-65
2022/04/17 00:11:41;;;;;;;;;2.00;2.00;;;;;16.52;34.48;102090.75;5176134;27;45010;-65
2022/04/17 00:14:10;;;;;;;;;3.50;3.50;;;;;16.53;34.17;102095.25;5153687;27;45073;-64
2022/04/17 00:16:36;;;;;;;;;3.00;3.00;;;;;16.45;34.47;102080.69;5175470;27;45788;-66
2022/04/17 00:19:01;;;;;;;;;4.00;4.00;;;;;16.50;34.31;102100.56;5135041;27;1115551;-66
2022/04/17 00:21:26;;;;;;;;;3.00;3.00;;;;;16.49;34.86;102085.28;5176491;27;45300;-66
2022/04/17 00:23:52;;;;;;;;;3.75;3.75;;;;;16.44;34.48;102087.88;5176720;27;45474;-66
2022/04/17 00:26:17;;;;;;;;;2.75;2.75;;;;;16.42;34.24;102086.94;5175467;27;45441;-65
2022/04/17 00:28:42;;;;;;;;;6.00;4.25;;;;;16.40;34.80;102081.50;5175724;27;45136;-66
2022/04/17 00:31:08;;;;;;;;;7.33;4.67;;;;;16.37;34.88;102084.13;5175635;27;44916;-66
2022/04/17 00:33:34;;;;;;;;;4.00;4.00;;;;;16.28;34.82;102067.69;5176276;27;45024;-66
2022/04/17 00:35:59;;;;;;;;;3.25;3.25;;;;;16.34;34.74;102080.44;5175274;27;45534;-66
2022/04/17 00:38:24;;;;;;;;;3.25;3.25;;;;;16.28;34.95;102078.47;5155493;27;44991;-66
2022/04/17 00:40:54;;;;;;;;;3.75;2.25;;;;;16.21;34.52;102074.72;5175064;27;45233;-66
2022/04/17 00:43:29;;;;;;;;;2.67;2.67;;;;;16.21;34.35;102079.22;5176197;27;45520;-66
2022/04/17 00:45:55;;;;;;;;;3.00;3.00;;;;;16.07;34.63;102059.09;5175893;27;45135;-66
2022/04/17 00:48:20;;;;;;;;;6.00;4.50;;;;;16.20;34.71;102080.09;5176585;27;45139;-65
2022/04/17 00:50:46;;;;;;;;;2.25;2.25;;;;;16.10;34.41;102080.75;5175694;27;44998;-66
2022/04/17 00:53:12;;;;;;;;;4.50;4.50;;;;;16.06;34.76;102076.16;5158018;27;45284;-64
2022/04/17 00:55:40;;;;;;;;;2.50;2.50;;;;;16.03;34.45;102074.28;5176177;27;45692;-66
2022/04/17 00:58:05;;;;;;;;;4.33;2.67;;;;;16.01;34.62;102067.94;5170080;27;44902;-64
2022/04/17 01:00:33;;;;;;;;;3.00;3.00;;;;;16.02;34.20;102070.69;5176231;27;45004;-65
2022/04/17 01:02:58;;;;;;;;;5.00;3.00;;;;;15.96;34.20;102056.16;5176395;27;45125;-66
2022/04/17 01:05:24;;;;;;;;;2.67;2.67;;;;;15.93;34.21;102065.06;5176305;27;45725;-65
2022/04/17 01:07:50;;;;;;;;;3.75;3.75;;;;;15.88;34.50;102050.53;5176370;27;45039;-65
2022/04/17 01:10:16;;;;;;;;;5.75;4.00;;;;;15.89;34.71;102051.44;5175508;27;44998;-65
2022/04/17 01:12:41;;;;;;;;;2.75;2.75;;;;;15.93;33.98;102056.97;5176682;27;45450;-66
2022/04/17 01:15:07;;;;;;;;;2.50;2.50;;;;;15.76;34.70;102034.09;5175355;27;45741;-65
2022/04/17 01:17:33;;;;;;;;;3.50;3.50;;;;;15.91;34.09;102053.31;5174739;27;45376;-66
2022/04/17 01:19:58;;;;;;;;;4.00;4.00;;;;;15.69;34.48;102030.28;5171478;27;45331;-66
2022/04/17 01:22:25;;;;;;;;;4.00;3.75;;;;;15.89;34.00;102056.84;5175503;27;45077;-66
2022/04/17 01:27:35;;;;;;;;;6.25;5.25;;;;;15.73;34.75;102036.66;5168317;27;44931;-65
2022/04/17 01:30:03;;;;;;;;;4.75;4.75;;;;;15.79;34.21;102053.94;5174954;27;45033;-64
2022/04/17 01:32:29;;;;;;;;;5.00;5.00;;;;;15.78;34.75;102049.41;5174951;27;45354;-66
2022/04/17 01:34:54;;;;;;;;;6.25;4.50;;;;;15.80;34.81;102035.97;5174744;27;45037;-64
2022/04/17 01:37:19;;;;;;;;;5.75;4.00;;;;;15.77;34.75;102052.06;5175218;27;45189;-66
2022/04/17 01:39:45;;;;;;;;;4.25;4.25;;;;;15.57;34.88;102008.41;5175921;27;45124;-66
2022/04/17 01:42:12;;;;;;;;;4.25;3.00;;;;;15.71;35.55;102033.03;5175298;27;45165;-66
2022/04/17 01:44:38;;;;;;;;;5.50;4.75;;;;;15.71;35.43;102041.09;5175815;27;45308;-65
2022/04/17 01:47:04;;;;;;;;;4.50;4.50;;;;;15.66;35.28;102039.19;5174961;27;45078;-66
2022/04/17 01:49:29;;;;;;;;;6.00;5.00;;;;;15.44;35.61;102004.47;5175185;27;45525;-65
2022/04/17 01:51:55;;;;;;;;;6.50;5.00;;;;;15.47;35.63;102028.78;5175349;27;45065;-65
2022/04/17 01:54:22;;;;;;;;;5.00;5.00;;;;;15.52;35.57;102034.31;5174483;27;45581;-66
2022/04/17 01:56:48;;;;;;;;;1.50;1.50;;;;;15.35;35.38;102012.31;5172688;27;45280;-66
2022/04/17 01:59:14;;;;;;;;;6.75;6.75;;;;;15.47;35.56;102032.38;5174793;27;45023;-66
2022/04/17 02:01:40;;;;;;;;;6.75;5.75;;;;;15.40;35.23;102032.19;5167475;27;45271;-65
2022/04/17 02:04:07;;;;;;;;;7.50;6.00;;;;;15.38;35.82;102031.25;5174918;27;45642;-65
2022/04/17 02:06:33;;;;;;;;;4.00;4.00;;;;;15.44;35.62;102032.31;5175526;27;45343;-65
2022/04/17 02:08:58;;;;;;;;;5.25;4.25;;;;;15.43;35.68;102034.97;5175106;27;45450;-66
2022/04/17 02:11:25;;;;;;;;;5.00;4.00;;;;;15.39;35.38;102020.53;5174962;27;45157;-65
2022/04/17 02:13:51;;;;;;;;;7.00;6.25;;;;;15.27;35.20;102007.63;5169717;27;45294;-64
2022/04/17 02:16:17;;;;;;;;;6.75;6.75;;;;;15.32;35.61;102031.97;5175157;27;45066;-64
2022/04/17 02:18:44;;;;;;;;;7.25;5.75;;;;;15.13;35.59;101986.56;5174614;27;45188;-65
2022/04/17 02:21:10;;;;;;;;;5.75;5.75;;;;;15.29;35.09;102035.53;5174422;27;45346;-66
2022/04/17 02:23:35;;;;;;;;;6.50;5.25;;;;;14.86;35.11;101949.94;5174056;27;45246;-66
2022/04/17 02:26:01;;;;;;;;;10.25;6.00;;;;;15.23;35.35;102031.75;5173810;27;45024;-65
2022/04/17 02:28:29;;;;;;;;;7.00;6.00;;;;;15.21;35.39;102018.25;5172567;27;45325;-64
2022/04/17 02:30:54;;;;;;;;;7.00;7.00;;;;;15.18;35.37;102017.22;5174165;27;45220;-65
2022/04/17 02:33:20;;;;;;;;;4.25;4.25;;;;;15.17;35.40;102026.19;5173203;27;45444;-65
2022/04/17 02:35:45;;;;;;;;;6.50;5.25;;;;;15.19;35.24;102024.44;5174687;27;45052;-65
2022/04/17 02:38:11;;;;;;;;;5.75;4.25;;;;;15.03;34.97;101996.16;5173266;27;45019;-65
2022/04/17 02:40:36;;;;;;;;;5.75;4.25;;;;;15.08;34.92;102010.69;5174034;27;45068;-64
2022/04/17 02:43:02;;;;;;;;;5.00;5.00;;;;;14.99;35.49;101999.66;5174260;27;45548;-66
2022/04/17 02:45:27;;;;;;;;;7.75;7.00;;;;;15.03;35.45;102006.94;5172844;27;44855;-66
2022/04/17 02:47:53;;;;;;;;;6.75;6.00;;;;;14.97;35.16;101996.91;5173183;27;45001;-66
2022/04/17 02:50:20;;;;;;;;;6.00;6.00;;;;;14.99;35.00;102005.03;5174739;27;44896;-66
2022/04/17 02:52:46;;;;;;;;;6.00;6.00;;;;;14.99;34.91;102005.94;5174589;27;45909;-64
2022/04/17 02:55:12;;;;;;;;;4.50;4.50;;;;;14.89;34.65;101993.09;5172791;27;44908;-64
2022/04/17 02:57:38;;;;;;;;;5.00;5.00;;;;;14.98;34.93;101998.75;5175012;27;45192;-65
2022/04/17 03:00:07;;;;;;;;;6.50;5.00;;;;;14.97;34.69;102002.28;5174524;27;45155;-65
2022/04/17 03:05:37;;;;;;;;;6.50;5.00;;;;;14.90;34.56;102001.22;5178634;27;45074;-66
2022/04/17 03:08:04;;;;;;;;;6.00;5.50;;;;;14.88;34.42;101997.56;5177870;27;45106;-65
2022/04/17 03:10:30;;;;;;;;;7.25;4.00;;;;;14.90;34.44;101992.25;5174226;27;44952;-67
2022/04/17 03:12:56;;;;;;;;;7.75;6.75;;;;;14.86;34.67;101993.91;5177691;27;45866;-66
2022/04/17 03:15:22;;;;;;;;;4.25;4.25;;;;;14.74;34.70;101980.13;5178131;27;45138;-63
2022/04/17 03:17:48;;;;;;;;;8.00;8.00;;;;;14.77;34.92;101987.38;5177874;27;45152;-65
2022/04/17 03:20:14;;;;;;;;;8.25;5.75;;;;;14.61;34.42;101962.69;5176602;27;45178;-66
2022/04/17 03:22:42;;;;;;;;;8.00;7.00;;;;;14.68;34.82;101988.00;5176122;27;46106;-66
2022/04/17 03:25:09;;;;;;;;;10.75;9.00;;;;;14.68;34.66;101985.31;5164447;27;45069;-66
2022/04/17 03:27:34;;;;;;;;;11.25;8.50;;;;;14.67;35.04;101978.13;5177046;27;45508;-65
2022/04/17 03:29:59;;;;;;;;;9.50;8.50;;;;;14.63;34.90;101984.25;5177627;27;45056;-66
2022/04/17 03:32:25;;;;;;;;;9.25;8.00;;;;;14.59;34.77;101982.34;5177240;27;45115;-66
2022/04/17 03:34:50;;;;;;;;;6.00;6.00;;;;;14.51;35.37;101980.31;5177620;27;45106;-65
2022/04/17 03:37:16;;;;;;;;;8.00;6.75;;;;;14.51;35.23;101984.78;5177667;27;45047;-66
2022/04/17 03:39:42;;;;;;;;;6.00;6.00;;;;;14.44;35.37;101975.63;5177048;27;45171;-66
2022/04/17 03:42:08;;;;;;;;;5.25;3.75;;;;;14.47;35.37;101975.72;5177081;27;46292;-65
2022/04/17 03:44:33;;;;;;;;;6.25;6.00;;;;;14.50;35.48;101985.63;5177376;27;45030;-65
2022/04/17 03:46:59;;;;;;;;;6.75;5.00;;;;;14.46;35.34;101981.03;5177487;27;45200;-65
2022/04/17 03:49:25;;;;;;;;;5.00;4.25;;;;;14.31;35.26;101970.72;5177447;27;44895;-66
2022/04/17 03:51:51;;;;;;;;;4.75;4.25;;;;;14.41;35.34;101980.91;5177041;27;45121;-66
2022/04/17 03:54:16;;;;;;;;;5.00;5.00;;;;;14.39;35.29;101982.63;5177606;27;44929;-66
2022/04/17 03:56:43;;;;;;;;;5.00;5.00;;;;;14.28;35.39;101965.25;5175941;27;45102;-65
2022/04/17 03:59:09;;;;;;;;;5.00;4.50;;;;;14.35;35.57;101978.00;5175772;27;45117;-65
2022/04/17 04:01:34;;;;;;;;;6.00;6.00;;;;;14.31;35.74;101971.63;5168338;27;46235;-65
2022/04/17 04:04:00;;;;;;;;;5.25;5.00;;;;;14.29;35.79;101973.38;5168964;27;45424;-66
2022/04/17 04:06:25;;;;;;;;;7.00;6.25;;;;;14.21;35.68;101969.53;5175583;27;45281;-65
2022/04/17 04:08:50;;;;;;;;;7.50;6.75;;;;;14.27;35.68;101974.19;5158838;27;45058;-66
2022/04/17 04:11:17;;;;;;;;;5.75;5.75;;;;;14.14;35.52;101955.00;5176806;27;45999;-66
2022/04/17 04:13:43;;;;;;;;;5.50;5.50;;;;;14.24;36.02;101960.63;5174902;27;45105;-65
2022/04/17 04:16:08;;;;;;;;;7.75;6.00;;;;;14.25;35.88;101966.06;5176761;27;45208;-66
2022/04/17 04:18:34;;;;;;;;;6.00;6.00;;;;;14.17;35.95;101971.22;5177081;27;45118;-66
2022/04/17 04:21:00;;;;;;;;;8.50;6.25;;;;;13.71;35.30;101883.81;5176492;27;45491;-65
2022/04/17 04:23:26;;;;;;;;;8.00;7.00;;;;;14.10;35.81;101966.50;5176113;27;45168;-65
2022/04/17 04:25:51;;;;;;;;;6.50;4.75;;;;;14.07;35.76;101966.41;5175901;27;45031;-65
2022/04/17 04:31:07;;;;;;;;;7.25;5.00;;;;;14.03;35.98;101969.88;5175495;27;45081;-65
2022/04/17 04:33:37;;;;;;;;;6.00;6.00;;;;;13.99;36.61;101971.56;5176483;27;45304;-65
2022/04/17 04:36:04;;;;;;;;;7.75;7.00;;;;;13.99;36.04;101962.56;5176465;27;44936;-65
2022/04/17 04:38:30;;;;;;;;;8.00;6.50;;;;;13.98;36.18;101958.97;5177424;27;45067;-65
2022/04/17 04:40:56;;;;;;;;;4.00;4.00;;;;;13.94;35.90;101953.44;5174376;27;45647;-65
2022/04/17 04:43:22;;;;;;;;;6.25;5.50;;;;;13.96;36.44;101962.50;5176040;27;45688;-65
2022/04/17 04:51:16;;;;;;;;;6.75;5.00;;;;;13.83;36.28;101967.44;5176195;27;45015;-65
2022/04/17 04:53:42;;;;;;;;;5.00;5.00;;;;;13.82;35.78;101964.72;5176332;27;45070;-65
2022/04/17 04:56:08;;;;;;;;;4.00;4.00;;;;;13.76;35.84;101960.06;5174776;27;45286;-65
2022/04/17 04:58:34;;;;;;;;;4.00;4.00;;;;;13.82;36.10;101964.72;5157344;27;45228;-66
2022/04/17 05:00:59;;;;;;;;;5.50;5.50;;;;;13.76;35.81;101962.75;5175833;27;45640;-64
2022/04/17 05:03:25;;;;;;;;;6.25;6.25;;;;;13.68;35.62;101957.97;5156455;27;45132;-65
2022/04/17 05:05:51;;;;;;;;;8.50;6.00;;;;;13.70;35.83;101970.59;5175640;27;45161;-65
2022/04/17 05:08:16;;;;;;;;;5.00;4.00;;;;;13.68;35.64;101969.63;5176115;27;45041;-66
2022/04/17 05:10:41;;;;;;;;;5.50;5.50;;;;;13.73;35.45;101972.47;5176097;27;45432;-67
2022/04/17 05:13:07;;;;;;;;;4.00;4.00;;;;;13.69;36.30;101971.44;5156870;27;45024;-65
2022/04/17 05:15:32;;;;;;;;;7.50;5.25;;;;;13.64;35.69;101956.94;5175203;27;45267;-66
2022/04/17 05:17:57;;;;;;;;;7.25;6.75;;;;;13.74;36.04;101969.84;5176140;27;44957;-66
2022/04/17 05:20:23;;;;;;;;;7.00;7.00;;;;;13.62;36.15;101958.69;5175616;27;45448;-66
2022/04/17 05:22:56;;;;;;;;;8.00;6.25;;;;;13.42;35.41;101923.13;5175668;27;44931;-67
2022/04/17 05:25:21;;;;;;;;;7.00;5.00;;;;;13.64;36.45;101975.75;5175909;27;45003;-65
2022/04/17 05:27:47;;;;;;;;;4.75;4.75;;;;;13.60;36.51;101972.06;5176545;27;44947;-65
2022/04/17 05:30:12;;;;;;;;;5.00;5.00;;;;;13.72;36.07;101987.66;5175733;27;45157;-66
2022/04/17 05:32:37;;;;;;;;;11.25;9.25;;;;;13.68;35.80;101980.38;5176193;27;48337;-65
2022/04/17 05:35:03;;;;;;;;;7.75;6.00;;;;;13.71;36.21;101983.19;5175157;27;45006;-66
2022/04/17 05:37:29;;;;;;;;;6.00;6.00;;;;;13.75;35.86;101984.19;5175969;27;45201;-65
2022/04/17 05:39:54;;;;;;;;;8.50;7.25;;;;;13.76;36.14;101978.88;5175567;27;44976;-65
2022/04/17 05:42:19;;;;;;;;;7.75;7.00;;;;;13.78;36.37;101984.28;5175093;27;45210;-64
2022/04/17 05:44:46;;;;;;;;;8.25;6.50;;;;;13.69;35.53;101979.50;5173716;27;44924;-64
2022/04/17 05:47:12;;;;;;;;;4.50;4.25;;;;;13.62;35.87;101977.47;5175014;27;45457;-65
2022/04/17 05:49:38;;;;;;;;;7.00;7.00;;;;;13.64;36.49;101975.75;5172459;27;46332;-64
2022/04/17 05:52:03;;;;;;;;;5.50;5.50;;;;;13.69;36.09;101976.81;5174800;27;45150;-64
2022/04/17 05:54:29;;;;;;;;;7.50;6.25;;;;;13.62;35.66;101973.00;5175435;27;45120;-65
2022/04/17 05:56:54;;;;;;;;;6.75;6.75;;;;;13.67;36.50;101981.22;5175527;27;45035;-66
2022/04/17 05:59:20;;;;;;;;;7.50;7.00;;;;;13.72;35.69;101984.06;5175235;27;49143;-64
2022/04/17 06:01:46;;;;;;;;;4.50;4.50;;;;;13.71;35.23;101988.53;5170132;27;45236;-65
2022/04/17 06:04:12;;;;;;;;;6.00;6.00;;;;;13.73;35.53;101988.59;5174939;27;45121;-65
2022/04/17 06:06:37;;;;;;;;;8.50;6.50;;;;;13.67;36.13;101978.53;5175519;27;45122;-66
2022/04/17 06:09:02;;;;;;;;;8.00;6.00;;;;;13.70;35.87;101991.19;5175766;27;45546;-66
2022/04/17 06:11:28;;;;;;;;;9.00;7.00;;;;;13.69;35.74;101992.94;5174564;27;44919;-66
2022/04/17 06:13:53;;;;;;;;;8.00;6.75;;;;;13.71;35.69;101988.53;5172505;27;45054;-65
2022/04/17 06:16:18;;;;;;;;;7.25;7.25;;;;;13.59;35.59;101975.59;5174364;27;45021;-66
2022/04/17 06:18:44;;;;;;;;;9.25;7.75;;;;;13.71;35.67;101988.53;5175037;27;45411;-66
2022/04/17 06:21:11;;;;;;;;;10.25;10.25;;;;;13.22;35.42;101901.84;5174920;27;45217;-66
2022/04/17 06:23:36;;;;;;;;;10.00;7.25;;;;;13.72;35.62;101989.44;5152503;27;45040;-65
2022/04/17 06:26:02;;;;;;;;;6.50;6.50;;;;;13.71;35.52;101984.94;5173552;27;45280;-65
2022/04/17 06:28:27;;;;;;;;;7.00;7.00;;;;;13.66;34.36;101979.44;5151972;27;47084;-64
2022/04/17 06:30:52;;;;;;;;;8.75;7.50;;;;;13.55;34.98;101956.66;5166581;27;46224;-64
2022/04/17 06:33:18;;;;;;;;;8.00;8.00;;;;;13.68;34.84;101976.75;5173932;27;45183;-65
2022/04/17 06:35:43;;;;;;;;;9.00;8.00;;;;;13.74;35.37;101977.91;5172346;27;45152;-65
2022/04/17 06:38:10;;;;;;;;;6.00;6.00;;;;;13.77;34.73;101975.28;5176027;27;49155;-66
2022/04/17 06:40:36;;;;;;;;;9.00;8.00;;;;;13.79;33.41;101972.66;5168534;27;45402;-64
2022/04/17 06:43:08;;;;;;;;;7.25;6.25;;;;;13.77;34.49;101993.19;5175070;27;45416;-65
2022/04/17 06:45:35;;;;;;;;;8.00;8.00;;;;;13.75;34.24;101971.66;5176657;27;45531;-64
2022/04/17 06:48:17;;;;;;;;;9.50;8.25;;;;;13.71;34.48;101950.00;5174235;27;45278;-65
2022/04/17 06:50:44;;;;;;;;;5.25;5.25;;;;;13.94;34.20;101981.25;5173189;27;45148;-65
2022/04/17 06:53:10;;;;;;;;;7.50;6.50;;;;;13.98;34.10;101982.25;5175654;27;45129;-65
2022/04/17 06:55:35;;;;;;;;;7.75;6.25;;;;;13.87;34.29;101951.44;5176116;27;45163;-66
2022/04/17 06:58:01;;;;;;;;;7.00;7.00;;;;;14.03;33.72;101982.41;5169005;27;45510;-65
2022/04/17 07:00:26;;;;;;;;;9.75;7.25;;;;;13.91;33.73;101953.34;5154002;27;45395;-66
2022/04/17 07:02:52;;;;;;;;;9.25;6.75;;;;;14.12;34.16;101975.53;5174842;27;45301;-66
2022/04/17 07:05:17;;;;;;;;;3.50;3.00;;;;;14.21;34.41;101974.00;5172975;27;45118;-66
2022/04/17 07:07:43;;;;;;;;;8.25;8.25;;;;;14.25;33.53;101963.38;5173206;27;45550;-64
2022/04/17 07:10:10;;;;;;;;;9.25;7.75;;;;;14.14;34.07;101936.19;5167014;27;45421;-66
2022/04/17 07:12:35;;;;;;;;;10.25;8.25;;;;;14.35;33.88;101951.13;5160972;27;45388;-66
2022/04/17 07:15:03;;;;;;;;;8.00;7.25;;;;;14.39;33.35;101953.06;5171792;27;45096;-65
2022/04/17 07:17:39;;;;;;;;;37.00;31.50;;;;;14.43;33.43;101957.66;5172256;27;47034;-67
2022/04/17 07:20:06;;;;;;;;;10.25;8.75;;;;;14.44;33.69;101947.81;5167808;27;45451;-66
2022/04/17 07:22:36;;;;;;;;;6.75;6.25;;;;;14.49;33.74;101944.41;5163678;27;45360;-65
2022/04/17 07:25:03;;;;;;;;;11.75;8.75;;;;;14.51;33.83;101942.66;5171947;27;45518;-64
2022/04/17 07:27:41;;;;;;;;;8.00;8.00;;;;;14.41;33.33;101907.41;5176150;27;47135;-65
2022/04/17 07:30:20;;;;;;;;;10.00;7.50;;;;;14.63;33.31;101943.91;5174196;27;45002;-65
2022/04/17 07:32:50;;;;;;;;;8.25;6.50;;;;;14.49;32.52;101914.81;5174149;27;45924;-66
2022/04/17 07:35:18;;;;;;;;;7.25;7.25;;;;;14.64;32.57;101935.00;5177436;27;45096;-65
2022/04/17 07:37:51;;;;;;;;;5.25;4.50;;;;;14.78;31.74;101938.06;5176742;27;45833;-67
2022/04/17 07:40:19;;;;;;;;;9.50;9.00;;;;;14.85;32.22;101929.28;5175837;27;45111;-67
2022/04/17 07:42:45;;;;;;;;;7.75;5.50;;;;;14.94;32.46;101934.94;5177340;27;45046;-64
2022/04/17 07:45:12;;;;;;;;;5.75;4.25;;;;;14.86;30.95;101934.72;5173587;27;45349;-66
2022/04/17 07:47:38;;;;;;;;;6.00;6.00;;;;;14.92;31.41;101929.50;5176491;27;45725;-65
2022/04/17 07:50:06;;;;;;;;;4.00;4.00;;;;;14.69;30.98;101868.78;5177479;27;45038;-65
2022/04/17 07:52:34;;;;;;;;;8.75;5.75;;;;;15.08;30.50;101924.56;5170273;27;45477;-66
2022/04/17 07:55:00;;;;;;;;;6.00;6.00;;;;;15.01;30.64;101915.38;5158872;27;45394;-66
2022/04/17 07:57:26;;;;;;;;;9.00;7.50;;;;;15.01;31.19;101907.31;5157201;27;46524;-66
2022/04/17 07:59:55;;;;;;;;;7.00;5.25;;;;;15.17;30.44;101911.31;5156207;27;45453;-65
2022/04/17 08:02:28;;;;;;;;;9.00;7.00;;;;;15.15;30.18;101914.88;5156382;27;45726;-65
2022/04/17 08:04:54;;;;;;;;;5.75;5.75;;;;;15.25;30.74;101909.75;5156687;27;46157;-66
2022/04/17 08:07:20;;;;;;;;;8.00;8.00;;;;;15.34;30.13;101908.16;5161918;27;45435;-65
2022/04/17 08:09:46;;;;;;;;;6.25;6.25;;;;;15.44;29.92;101913.81;5166905;27;45417;-67
2022/04/17 08:12:12;;;;;;;;;6.25;6.00;;;;;15.50;30.03;101913.06;5165260;27;45656;-67
2022/04/17 08:14:37;;;;;;;;;12.75;11.25;;;;;15.52;30.02;101911.31;5173155;27;44912;-66
2022/04/17 08:17:03;;;;;;;;;6.25;6.25;;;;;15.45;30.13;101879.72;5174847;27;47119;-66
2022/04/17 08:19:29;;;;;;;;;8.00;7.00;;;;;15.54;30.11;101881.72;5175820;27;45043;-65
2022/04/17 08:21:55;;;;;;;;;6.00;6.00;;;;;15.64;30.27;101870.28;5176510;27;45066;-66
2022/04/17 08:24:21;;;;;;;;;4.50;4.50;;;;;15.76;29.09;101870.63;5176786;27;45092;-65
2022/04/17 08:26:46;;;;;;;;;8.50;8.00;;;;;16.00;29.05;101896.28;5172394;27;46991;-64
2022/04/17 08:29:12;;;;;;;;;5.00;5.00;;;;;15.88;28.59;101888.84;5176379;27;45045;-65
2022/04/17 08:31:37;;;;;;;;;5.50;4.75;;;;;15.55;29.14;101837.75;5176133;27;45113;-66
2022/04/17 08:34:03;;;;;;;;;6.50;6.50;;;;;15.79;28.69;101875.19;5166850;27;45297;-67
2022/04/17 08:36:28;;;;;;;;;6.75;6.75;;;;;15.95;29.49;101881.81;5162512;27;46922;-64
2022/04/17 08:38:53;;;;;;;;;5.50;5.50;;;;;16.01;28.74;101882.84;5163912;27;45182;-66
2022/04/17 08:41:20;;;;;;;;;4.50;4.50;;;;;15.99;28.59;101849.56;5173808;27;45045;-66
2022/04/17 08:43:46;;;;;;;;;7.00;6.25;;;;;16.18;28.21;101864.34;5169665;27;45251;-66
2022/04/17 08:46:12;;;;;;;;;6.50;5.00;;;;;16.37;28.47;101849.47;5168041;27;45193;-66
2022/04/17 08:48:38;;;;;;;;;4.75;4.25;;;;;16.74;28.08;101881.66;5172056;27;45160;-66
2022/04/17 08:51:05;;;;;;;;;5.00;5.00;;;;;16.86;27.57;101868.44;5173899;27;45111;-66
2022/04/17 08:53:34;;;;;;;;;4.75;4.75;;;;;16.73;26.44;101839.38;5169170;27;45452;-66
2022/04/17 08:55:59;;;;;;;;;4.33;4.33;;;;;16.89;27.09;101837.88;5162401;27;47190;-65
2022/04/17 08:58:24;;;;;;;;;6.25;4.00;;;;;17.22;26.25;101879.84;5170392;27;45008;-66
2022/04/17 09:00:50;;;;;;;;;6.25;3.75;;;;;17.09;26.39;101855.34;5175341;27;44858;-66
2022/04/17 09:03:15;;;;;;;;;7.50;6.25;;;;;17.24;26.30;101875.38;5170797;27;44965;-64
2022/04/17 09:05:41;;;;;;;;;6.33;4.00;;;;;17.26;26.54;101866.44;5168305;27;46077;-64
2022/04/17 09:08:21;;;;;;;;;9.00;3.50;;;;;17.32;26.53;101841.28;5163567;27;45556;-65
2022/04/17 09:10:55;;;;;;;;;6.00;4.00;;;;;17.39;25.69;101864.84;5166917;27;45384;-65
2022/04/17 09:13:29;;;;;;;;;4.00;4.00;;;;;17.49;26.44;101863.19;5170415;27;45543;-65
2022/04/17 09:15:55;;;;;;;;;12.00;6.00;;;;;17.65;26.49;101859.84;5167558;27;45411;-66
2022/04/17 09:18:20;;;;;;;;;11.00;5.67;;;;;17.56;26.16;101823.66;5155287;27;45343;-67
2022/04/17 09:20:46;;;;;;;;;5.00;4.67;;;;;17.74;25.68;101828.44;5166978;27;45568;-66
2022/04/17 09:23:12;;;;;;;;;2.33;2.00;;;;;18.00;26.19;101858.53;5168528;27;45556;-66
2022/04/17 09:25:37;;;;;;;;;4.67;4.67;;;;;18.03;25.26;101829.78;5171020;27;45118;-66
2022/04/17 09:28:04;;;;;;;;;4.67;4.67;;;;;18.39;25.58;101841.91;5176398;27;45445;-64
2022/04/17 09:30:39;;;;;;;;;2.33;2.33;;;;;18.75;24.70;101842.31;5172745;27;45399;-64
2022/04/17 09:33:07;;;;;;;;;3.33;3.33;;;;;18.99;24.56;101835.34;5175308;27;44904;-66
2022/04/17 09:35:32;;;;;;;;;3.33;3.33;;;;;19.08;24.31;101839.03;5164506;27;45547;-65
2022/04/17 09:37:59;;;;;;;;;3.00;3.00;;;;;19.15;23.90;101840.91;5172998;27;45410;-66
2022/04/17 09:40:27;;;;;;;;;3.67;3.67;;;;;19.13;23.92;101825.53;5167890;27;45197;-65
2022/04/17 09:43:11;;;;;;;;;4.00;4.00;;;;;19.23;23.44;101834.66;5161587;27;45482;-65
2022/04/17 09:45:57;;;;;;;;;4.00;4.00;;;;;19.23;23.23;101827.41;5161881;27;45664;-67
2022/04/17 09:48:23;;;;;;;;;6.00;6.00;;;;;19.28;23.33;101832.88;5165717;27;45478;-66
2022/04/17 09:50:48;;;;;;;;;4.33;4.33;;;;;19.21;23.29;101814.78;5173218;27;45317;-67
2022/04/17 09:53:31;;;;;;;;;2.00;2.00;;;;;19.31;22.78;101822.97;5171566;27;45321;-66
2022/04/17 09:56:10;;;;;;;;;4.00;4.00;;;;;19.26;22.42;101808.47;5169244;27;45652;-65
2022/04/17 09:58:37;;;;;;;;;5.33;5.33;;;;;19.20;22.92;101807.53;5173429;27;45257;-65
2022/04/17 10:01:03;;;;;;;;;4.00;4.00;;;;;19.30;22.56;101807.63;5156286;27;45416;-66
2022/04/17 10:03:29;;;;;;;;;4.00;3.00;;;;;19.40;22.72;101796.81;5171922;27;45078;-65
2022/04/17 10:05:55;;;;;;;;;4.00;3.33;;;;;19.33;22.61;101777.81;5156259;27;46138;-66
2022/04/17 10:08:26;;;;;;;;;4.67;4.00;;;;;19.55;22.30;101806.84;5155925;27;45606;-66
2022/04/17 10:10:51;;;;;;;;;2.00;2.00;;;;;19.44;22.32;101790.53;5158825;27;45374;-65
2022/04/17 10:13:19;;;;;;;;;3.33;2.67;;;;;19.40;22.23;101785.97;5170146;27;45277;-65
2022/04/17 10:15:45;;;;;;;;;5.67;3.33;;;;;19.48;22.19;101787.84;5160075;27;46311;-66
2022/04/17 10:18:11;;;;;;;;;4.33;3.33;;;;;19.55;22.07;101785.16;5166858;27;45253;-66
2022/04/17 10:20:36;;;;;;;;;3.67;2.33;;;;;19.63;22.23;101784.34;5168116;27;45453;-66
2022/04/17 10:23:05;;;;;;;;;4.00;4.00;;;;;19.72;21.86;101780.75;5160021;27;45508;-66
2022/04/17 10:25:34;;;;;;;;;5.00;5.00;;;;;19.72;21.73;101771.72;5175599;27;45298;-66
2022/04/17 10:28:05;;;;;;;;;2.67;2.67;;;;;19.75;21.56;101778.09;5167453;27;45359;-66
2022/04/17 10:30:47;;;;;;;;;3.00;3.00;;;;;19.78;21.81;101764.56;5166062;27;45311;-66
2022/04/17 10:33:23;;;;;;;;;4.33;4.00;;;;;19.91;21.57;101767.31;5161833;27;45481;-66
2022/04/17 10:36:04;;;;;;;;;2.33;2.33;;;;;19.93;21.36;101760.09;5168718;27;45622;-66
2022/04/17 10:38:59;;;;;;;;;3.67;2.00;;;;;19.69;21.36;101704.81;5138863;27;45474;-66
2022/04/17 10:41:25;;;;;;;;;3.33;3.00;;;;;19.94;21.00;101722.13;5178214;27;45181;-65
2022/04/17 10:43:50;;;;;;;;;5.00;4.00;;;;;20.06;21.16;101745.66;5177939;27;45149;-66
2022/04/17 10:46:16;;;;;;;;;2.67;2.67;;;;;20.12;20.57;101736.66;5148078;27;46476;-65
2022/04/17 10:48:55;;;;;;;;;2.33;0.00;;;;;20.10;20.48;101747.50;5168272;27;45507;-66
2022/04/17 10:51:26;;;;;;;;;3.33;3.00;;;;;20.15;20.56;101726.72;5160717;27;45294;-65
2022/04/17 10:54:10;;;;;;;;;4.33;3.33;;;;;20.21;20.76;101720.38;5159063;27;45499;-65
2022/04/17 10:56:53;;;;;;;;;3.00;3.00;;;;;20.16;20.39;101724.88;5168017;27;46240;-67
2022/04/17 10:59:21;;;;;;;;;2.67;2.67;;;;;20.02;19.94;101714.91;5172038;27;45361;-67
2022/04/17 11:01:52;;;;;;;;;2.00;2.00;;;;;20.04;19.55;101723.06;5170634;27;45425;-65
2022/04/17 11:04:24;;;;;;;;;4.00;4.00;;;;;19.92;19.69;101691.38;5159321;27;45492;-66
2022/04/17 11:06:53;;;;;;;;;4.67;3.00;;;;;20.12;20.08;101705.00;5173184;27;46061;-65
2022/04/17 11:09:23;;;;;;;;;4.00;2.33;;;;;20.23;19.61;101707.75;5160735;27;45363;-65
2022/04/17 11:11:49;;;;;;;;;3.67;2.67;;;;;20.27;19.42;101703.22;5158944;27;45329;-67
2022/04/17 11:14:21;;;;;;;;;4.33;4.33;;;;;20.31;19.11;101700.50;5165193;27;45814;-66
2022/04/17 11:16:52;;;;;;;;;2.33;2.33;;;;;20.28;18.63;101702.28;5158709;27;46650;-66
2022/04/17 11:19:21;;;;;;;;;1.00;1.00;;;;;20.12;18.67;101691.41;5139520;27;45396;-65
2022/04/17 11:21:50;;;;;;;;;2.67;2.67;;;;;20.06;18.93;101686.91;5157670;27;45509;-66
2022/04/17 11:24:16;;;;;;;;;3.00;2.00;;;;;19.91;18.74;101648.88;5152413;27;45575;-67
2022/04/17 11:26:53;;;;;;;;;6.33;3.00;;;;;20.14;18.98;101673.31;5158526;27;46202;-66
2022/04/17 11:29:50;;;;;;;;;3.67;3.33;;;;;20.15;18.56;101660.69;5158127;27;45289;-67
2022/04/17 11:32:19;;;;;;;;;6.67;5.33;;;;;20.19;18.51;101678.78;5158511;27;45728;-66
2022/04/17 11:34:58;;;;;;;;;2.67;2.67;;;;;20.23;18.92;101667.94;5139517;27;45582;-66
2022/04/17 11:37:28;;;;;;;;;5.00;3.00;;;;;20.28;19.00;101664.28;5168599;27;45507;-66
2022/04/17 11:39:57;;;;;;;;;2.33;2.33;;;;;20.21;18.86;101649.81;5148391;27;45330;-66